createdAt,value
2023-05-25T00:00:08.313Z,0.00
2023-05-25T00:01:08.302Z,0.00
2023-05-25T00:02:08.320Z,0.00
2023-05-25T00:03:08.355Z,0.00
2023-05-25T00:04:08.314Z,0.00
2023-05-25T00:05:08.259Z,0.00
2023-05-25T00:06:11.224Z,0.00
2023-05-25T00:07:11.220Z,0.00
2023-05-25T00:08:08.210Z,0.00
2023-05-25T00:09:08.186Z,0.00
2023-05-25T00:10:08.197Z,0.00
2023-05-25T00:11:08.184Z,0.00
2023-05-25T00:12:08.145Z,0.00
2023-05-25T00:13:08.127Z,0.00
2023-05-25T00:14:08.113Z,0.00
2023-05-25T00:15:08.150Z,0.00
2023-05-25T00:16:08.085Z,0.00
2023-05-25T00:17:08.219Z,0.00
2023-05-25T00:18:08.088Z,0.00
2023-05-25T00:19:08.045Z,0.00
2023-05-25T00:20:08.180Z,0.00
2023-05-25T00:21:08.021Z,0.00
2023-05-25T00:22:08.009Z,0.00
2023-05-25T00:23:07.984Z,0.00
2023-05-25T00:24:07.979Z,0.00
2023-05-25T00:25:07.996Z,0.00
2023-05-25T00:26:10.953Z,0.00
2023-05-25T00:27:10.973Z,0.00
2023-05-25T00:28:07.920Z,0.00
2023-05-25T00:29:07.915Z,0.00
2023-05-25T00:30:07.900Z,0.00
2023-05-25T00:31:07.910Z,0.00
2023-05-25T00:32:07.907Z,0.00
2023-05-25T00:33:07.883Z,0.00
2023-05-25T00:34:07.852Z,0.00
2023-05-25T00:35:07.828Z,0.00
2023-05-25T00:36:07.815Z,0.00
2023-05-25T00:37:07.817Z,0.00
2023-05-25T00:38:07.824Z,0.00
2023-05-25T00:39:07.771Z,0.00
2023-05-25T00:40:07.761Z,0.00
2023-05-25T00:41:07.740Z,0.00
2023-05-25T00:42:07.754Z,0.00
2023-05-25T00:43:07.740Z,0.00
2023-05-25T00:44:07.731Z,0.00
2023-05-25T00:45:07.700Z,0.00
2023-05-25T00:46:10.762Z,0.00
2023-05-25T00:47:10.663Z,0.00
2023-05-25T00:48:07.718Z,0.00
2023-05-25T00:49:07.656Z,0.00
2023-05-25T00:50:07.633Z,0.00
2023-05-25T00:51:07.616Z,0.00
2023-05-25T00:52:07.628Z,0.00
2023-05-25T00:53:07.624Z,0.00
2023-05-25T00:54:07.665Z,0.00
2023-05-25T00:55:07.559Z,0.00
2023-05-25T00:56:07.543Z,0.00
2023-05-25T00:57:07.533Z,0.00
2023-05-25T00:58:07.522Z,0.00
2023-05-25T00:59:07.497Z,0.00
2023-05-25T01:00:07.549Z,0.00
2023-05-25T01:01:07.471Z,0.00
2023-05-25T01:02:07.577Z,0.00
2023-05-25T01:03:09.697Z,0.00
2023-05-25T01:04:07.694Z,0.00
2023-05-25T01:05:07.404Z,0.00
2023-05-25T01:06:10.427Z,0.00
2023-05-25T01:07:10.387Z,0.00
2023-05-25T01:08:07.398Z,0.00
2023-05-25T01:09:07.375Z,0.00
2023-05-25T01:10:07.371Z,0.00
2023-05-25T01:11:07.353Z,0.00
2023-05-25T01:12:07.320Z,0.00
2023-05-25T01:13:07.304Z,0.00
2023-05-25T01:14:07.335Z,0.00
2023-05-25T01:15:07.303Z,0.00
2023-05-25T01:16:07.302Z,0.00
2023-05-25T01:17:07.254Z,0.00
2023-05-25T01:18:07.233Z,0.00
2023-05-25T01:19:07.245Z,0.00
2023-05-25T01:20:11.118Z,0.00
2023-05-25T01:21:07.190Z,0.00
2023-05-25T01:22:07.207Z,0.00
2023-05-25T01:23:07.161Z,0.00
2023-05-25T01:24:07.153Z,0.00
2023-05-25T01:25:07.137Z,0.00
2023-05-25T01:26:10.147Z,0.00
2023-05-25T01:27:10.114Z,0.00
2023-05-25T01:28:07.120Z,0.00
2023-05-25T01:29:07.074Z,0.00
2023-05-25T01:30:07.073Z,0.00
2023-05-25T01:31:07.079Z,0.00
2023-05-25T01:32:07.080Z,0.00
2023-05-25T01:33:07.051Z,0.00
2023-05-25T01:34:07.011Z,0.00
2023-05-25T01:35:07.073Z,0.00
2023-05-25T01:36:06.987Z,0.00
2023-05-25T01:37:06.967Z,0.00
2023-05-25T01:38:06.974Z,0.00
2023-05-25T01:39:06.949Z,0.00
2023-05-25T01:40:06.929Z,0.00
2023-05-25T01:41:06.941Z,0.00
2023-05-25T01:42:06.902Z,0.00
2023-05-25T01:43:06.891Z,0.00
2023-05-25T01:44:06.875Z,0.00
2023-05-25T01:45:06.856Z,0.00
2023-05-25T01:46:09.926Z,0.00
2023-05-25T01:47:09.838Z,0.00
2023-05-25T01:48:06.841Z,0.00
2023-05-25T01:49:06.831Z,0.00
2023-05-25T01:50:06.817Z,0.00
2023-05-25T01:51:06.781Z,0.00
2023-05-25T01:52:06.828Z,0.00
2023-05-25T01:53:06.746Z,0.00
2023-05-25T01:54:06.766Z,0.00
2023-05-25T01:55:06.713Z,0.00
2023-05-25T01:56:06.717Z,0.00
2023-05-25T01:57:06.722Z,0.00
2023-05-25T01:58:06.690Z,0.00
2023-05-25T01:59:06.673Z,0.00
2023-05-25T02:00:06.663Z,0.00
2023-05-25T02:01:06.670Z,0.00
2023-05-25T02:02:06.680Z,0.00
2023-05-25T02:03:06.700Z,0.00
2023-05-25T02:04:06.619Z,0.00
2023-05-25T02:05:06.599Z,0.00
2023-05-25T02:06:09.589Z,0.00
2023-05-25T02:07:09.583Z,0.00
2023-05-25T02:08:06.548Z,0.00
2023-05-25T02:09:06.535Z,0.00
2023-05-25T02:10:06.601Z,0.00
2023-05-25T02:11:06.523Z,0.00
2023-05-25T02:12:06.495Z,0.00
2023-05-25T02:13:06.501Z,0.00
2023-05-25T02:14:06.497Z,0.00
2023-05-25T02:15:06.446Z,0.00
2023-05-25T02:16:06.515Z,0.00
2023-05-25T02:17:06.427Z,0.00
2023-05-25T02:18:06.412Z,0.00
2023-05-25T02:19:06.417Z,0.00
2023-05-25T02:20:06.541Z,4.00
2023-05-25T02:21:06.390Z,4.00
2023-05-25T02:22:06.366Z,4.00
2023-05-25T02:23:06.341Z,0.00
2023-05-25T02:24:06.337Z,0.00
2023-05-25T02:25:06.323Z,4.00
2023-05-25T02:26:09.329Z,4.00
2023-05-25T02:27:09.294Z,0.00
2023-05-25T02:28:06.295Z,4.00
2023-05-25T02:29:06.260Z,4.00
2023-05-25T02:30:06.276Z,4.00
2023-05-25T02:31:06.267Z,4.00
2023-05-25T02:32:06.216Z,4.00
2023-05-25T02:33:06.263Z,4.00
2023-05-25T02:34:06.195Z,4.00
2023-05-25T02:35:06.180Z,8.00
2023-05-25T02:36:06.198Z,8.00
2023-05-25T02:37:06.164Z,8.00
2023-05-25T02:38:06.142Z,12.00
2023-05-25T02:39:06.123Z,12.00
2023-05-25T02:40:06.119Z,16.00
2023-05-25T02:41:06.125Z,16.00
2023-05-25T02:42:06.091Z,20.00
2023-05-25T02:43:06.091Z,20.00
2023-05-25T02:44:06.061Z,24.00
2023-05-25T02:45:06.038Z,24.00
2023-05-25T02:46:09.100Z,28.00
2023-05-25T02:47:09.042Z,28.00
2023-05-25T02:48:06.075Z,20.00
2023-05-25T02:49:05.994Z,16.00
2023-05-25T02:50:05.981Z,12.00
2023-05-25T02:51:05.990Z,12.00
2023-05-25T02:52:05.951Z,16.00
2023-05-25T02:53:05.939Z,28.00
2023-05-25T02:54:05.922Z,44.00
2023-05-25T02:55:05.912Z,52.00
2023-05-25T02:56:05.909Z,60.00
2023-05-25T02:57:05.906Z,64.00
2023-05-25T02:58:05.881Z,76.00
2023-05-25T02:59:05.852Z,96.00
2023-05-25T03:00:05.831Z,108.00
2023-05-25T03:01:05.845Z,124.00
2023-05-25T03:02:05.836Z,136.00
2023-05-25T03:03:05.908Z,136.00
2023-05-25T03:04:05.897Z,132.00
2023-05-25T03:05:05.781Z,116.00
2023-05-25T03:06:08.748Z,100.00
2023-05-25T03:07:08.767Z,120.00
2023-05-25T03:08:05.758Z,152.00
2023-05-25T03:09:05.712Z,192.00
2023-05-25T03:10:05.697Z,212.00
2023-05-25T03:11:05.693Z,228.00
2023-05-25T03:12:05.724Z,244.00
2023-05-25T03:13:05.656Z,256.00
2023-05-25T03:14:05.648Z,256.00
2023-05-25T03:15:05.641Z,236.00
2023-05-25T03:16:05.622Z,236.00
2023-05-25T03:17:05.630Z,224.00
2023-05-25T03:18:05.712Z,228.00
2023-05-25T03:19:05.654Z,240.00
2023-05-25T03:20:05.584Z,268.00
2023-05-25T03:21:05.545Z,332.00
2023-05-25T03:22:05.553Z,356.00
2023-05-25T03:23:05.530Z,312.00
2023-05-25T03:24:05.560Z,300.00
2023-05-25T03:25:05.513Z,284.00
2023-05-25T03:26:08.486Z,304.00
2023-05-25T03:27:08.477Z,364.00
2023-05-25T03:28:05.471Z,400.00
2023-05-25T03:29:05.468Z,360.00
2023-05-25T03:30:05.440Z,280.00
2023-05-25T03:31:05.420Z,276.00
2023-05-25T03:32:05.456Z,300.00
2023-05-25T03:33:05.459Z,300.00
2023-05-25T03:34:05.397Z,296.00
2023-05-25T03:35:05.421Z,328.00
2023-05-25T03:36:05.354Z,352.00
2023-05-25T03:37:05.342Z,360.00
2023-05-25T03:38:05.319Z,384.00
2023-05-25T03:39:05.328Z,492.00
2023-05-25T03:40:05.295Z,536.00
2023-05-25T03:41:05.325Z,532.00
2023-05-25T03:42:05.278Z,472.00
2023-05-25T03:43:05.282Z,436.00
2023-05-25T03:44:05.251Z,476.00
2023-05-25T03:45:05.223Z,468.00
2023-05-25T03:46:08.275Z,460.00
2023-05-25T03:47:08.198Z,400.00
2023-05-25T03:48:05.234Z,376.00
2023-05-25T03:49:05.168Z,408.00
2023-05-25T03:50:05.191Z,460.00
2023-05-25T03:51:05.197Z,684.00
2023-05-25T03:52:05.133Z,992.00
2023-05-25T03:53:05.120Z,1392.00
2023-05-25T03:54:05.106Z,1172.00
2023-05-25T03:55:05.097Z,884.00
2023-05-25T03:56:05.068Z,692.00
2023-05-25T03:57:05.087Z,648.00
2023-05-25T03:58:05.059Z,600.00
2023-05-25T03:59:05.055Z,612.00
2023-05-25T04:00:05.017Z,656.00
2023-05-25T04:01:05.578Z,600.00
2023-05-25T04:02:05.022Z,508.00
2023-05-25T04:03:05.122Z,500.00
2023-05-25T04:04:05.039Z,596.00
2023-05-25T04:05:04.955Z,664.00
2023-05-25T04:06:07.935Z,648.00
2023-05-25T04:07:07.940Z,684.00
2023-05-25T04:08:04.949Z,720.00
2023-05-25T04:09:04.892Z,808.00
2023-05-25T04:10:04.898Z,860.00
2023-05-25T04:11:04.881Z,980.00
2023-05-25T04:12:04.857Z,1104.00
2023-05-25T04:13:04.843Z,1120.00
2023-05-25T04:14:04.864Z,1080.00
2023-05-25T04:15:04.827Z,1104.00
2023-05-25T04:16:04.842Z,1084.00
2023-05-25T04:17:04.780Z,1296.00
2023-05-25T04:18:04.799Z,1476.00
2023-05-25T04:19:04.758Z,1600.00
2023-05-25T04:20:04.798Z,1924.00
2023-05-25T04:21:04.727Z,2328.00
2023-05-25T04:22:04.734Z,2876.00
2023-05-25T04:23:04.712Z,3528.00
2023-05-25T04:24:04.685Z,5124.00
2023-05-25T04:25:04.673Z,16192.00
2023-05-25T04:26:07.663Z,8492.00
2023-05-25T04:27:07.691Z,4460.00
2023-05-25T04:28:04.631Z,3768.00
2023-05-25T04:29:04.652Z,3664.00
2023-05-25T04:30:04.603Z,4124.00
2023-05-25T04:31:04.592Z,3848.00
2023-05-25T04:32:04.769Z,2216.00
2023-05-25T04:33:04.645Z,1968.00
2023-05-25T04:34:04.556Z,2196.00
2023-05-25T04:35:04.564Z,2488.00
2023-05-25T04:36:04.521Z,2944.00
2023-05-25T04:37:04.596Z,2672.00
2023-05-25T04:38:04.492Z,2132.00
2023-05-25T04:39:04.486Z,1964.00
2023-05-25T04:40:04.456Z,1900.00
2023-05-25T04:41:04.454Z,1844.00
2023-05-25T04:42:04.889Z,1828.00
2023-05-25T04:43:04.443Z,1808.00
2023-05-25T04:44:09.520Z,1680.00
2023-05-25T04:45:05.407Z,1656.00
2023-05-25T04:46:07.440Z,1932.00
2023-05-25T04:47:07.382Z,2408.00
2023-05-25T04:48:04.485Z,2528.00
2023-05-25T04:49:04.343Z,2444.00
2023-05-25T04:50:04.388Z,2368.00
2023-05-25T04:51:04.315Z,2332.00
2023-05-25T04:52:04.313Z,2268.00
2023-05-25T04:53:04.285Z,2008.00
2023-05-25T04:54:04.271Z,1824.00
2023-05-25T04:55:04.322Z,1772.00
2023-05-25T04:56:04.250Z,1860.00
2023-05-25T04:57:04.236Z,2048.00
2023-05-25T04:58:04.215Z,2420.00
2023-05-25T04:59:04.198Z,2904.00
2023-05-25T05:00:04.189Z,3064.00
2023-05-25T05:01:04.220Z,2792.00
2023-05-25T05:02:04.161Z,2696.00
2023-05-25T05:03:04.238Z,2984.00
2023-05-25T05:04:04.261Z,3112.00
2023-05-25T05:05:04.151Z,3204.00
2023-05-25T05:06:07.133Z,3632.00
2023-05-25T05:07:07.082Z,3636.00
2023-05-25T05:08:04.098Z,2932.00
2023-05-25T05:09:04.065Z,2468.00
2023-05-25T05:10:04.050Z,2420.00
2023-05-25T05:11:04.066Z,2464.00
2023-05-25T05:12:04.062Z,2380.00
2023-05-25T05:13:04.007Z,2448.00
2023-05-25T05:14:03.991Z,2536.00
2023-05-25T05:15:03.983Z,2396.00
2023-05-25T05:16:03.968Z,2212.00
2023-05-25T05:17:04.058Z,2244.00
2023-05-25T05:18:04.006Z,2452.00
2023-05-25T05:19:03.927Z,2848.00
2023-05-25T05:20:03.939Z,2812.00
2023-05-25T05:21:03.897Z,2620.00
2023-05-25T05:22:03.907Z,2568.00
2023-05-25T05:23:03.915Z,2612.00
2023-05-25T05:24:03.851Z,3024.00
2023-05-25T05:25:03.845Z,3516.00
2023-05-25T05:26:06.825Z,4040.00
2023-05-25T05:27:06.817Z,4336.00
2023-05-25T05:28:03.821Z,4912.00
2023-05-25T05:29:03.793Z,5792.00
2023-05-25T05:30:03.774Z,6484.00
2023-05-25T05:31:03.791Z,6788.00
2023-05-25T05:32:03.745Z,7988.00
2023-05-25T05:33:03.873Z,9496.00
2023-05-25T05:34:03.773Z,9372.00
2023-05-25T05:35:03.704Z,8856.00
2023-05-25T05:36:03.692Z,8732.00
2023-05-25T05:37:03.687Z,8904.00
2023-05-25T05:38:03.710Z,12708.00
2023-05-25T05:39:03.649Z,7368.00
2023-05-25T05:40:03.646Z,6100.00
2023-05-25T05:41:03.616Z,6812.00
2023-05-25T05:42:03.619Z,7148.00
2023-05-25T05:43:03.619Z,7480.00
2023-05-25T05:44:03.568Z,7572.00
2023-05-25T05:45:03.569Z,12064.00
2023-05-25T05:46:06.615Z,9152.00
2023-05-25T05:47:06.538Z,9016.00
2023-05-25T05:48:03.663Z,7700.00
2023-05-25T05:49:03.522Z,8768.00
2023-05-25T05:50:03.490Z,13072.00
2023-05-25T05:51:03.531Z,9712.00
2023-05-25T05:52:03.466Z,8088.00
2023-05-25T05:53:03.466Z,8768.00
2023-05-25T05:54:03.436Z,8836.00
2023-05-25T05:55:03.451Z,13888.00
2023-05-25T05:56:03.467Z,14208.00
2023-05-25T05:57:03.404Z,9100.00
2023-05-25T05:58:03.384Z,13172.00
2023-05-25T05:59:03.388Z,13536.00
2023-05-25T06:00:03.367Z,11048.00
2023-05-25T06:01:03.354Z,9612.00
2023-05-25T06:02:03.414Z,7676.00
2023-05-25T06:03:03.417Z,9684.00
2023-05-25T06:04:03.294Z,8212.00
2023-05-25T06:05:03.288Z,10136.00
2023-05-25T06:06:06.324Z,11316.00
2023-05-25T06:07:06.285Z,11468.00
2023-05-25T06:08:05.142Z,8732.00
2023-05-25T06:09:03.229Z,6860.00
2023-05-25T06:10:03.236Z,6652.00
2023-05-25T06:11:03.199Z,6400.00
2023-05-25T06:12:03.196Z,4396.00
2023-05-25T06:13:03.199Z,4556.00
2023-05-25T06:14:03.166Z,4812.00
2023-05-25T06:15:03.185Z,5284.00
2023-05-25T06:16:03.141Z,5452.00
2023-05-25T06:17:03.181Z,4720.00
2023-05-25T06:18:03.115Z,4544.00
2023-05-25T06:19:03.091Z,4668.00
2023-05-25T06:20:03.148Z,5248.00
2023-05-25T06:21:03.056Z,4976.00
2023-05-25T06:22:03.074Z,4496.00
2023-05-25T06:23:03.038Z,5572.00
2023-05-25T06:24:03.013Z,5580.00
2023-05-25T06:25:03.045Z,6220.00
2023-05-25T06:26:05.995Z,12156.00
2023-05-25T06:27:06.011Z,11228.00
2023-05-25T06:28:02.967Z,12576.00
2023-05-25T06:29:02.959Z,12040.00
2023-05-25T06:30:02.960Z,7772.00
2023-05-25T06:31:02.927Z,5584.00
2023-05-25T06:32:02.965Z,4992.00
2023-05-25T06:33:02.936Z,7816.00
2023-05-25T06:34:02.893Z,7616.00
2023-05-25T06:35:02.872Z,4932.00
2023-05-25T06:36:02.898Z,5276.00
2023-05-25T06:37:02.852Z,6008.00
2023-05-25T06:38:02.829Z,6280.00
2023-05-25T06:39:02.865Z,6600.00
2023-05-25T06:40:02.808Z,7256.00
2023-05-25T06:41:02.790Z,6052.00
2023-05-25T06:42:02.773Z,4640.00
2023-05-25T06:43:02.768Z,4580.00
2023-05-25T06:44:02.743Z,7380.00
2023-05-25T06:45:02.757Z,4624.00
2023-05-25T06:46:05.734Z,4984.00
2023-05-25T06:47:05.712Z,7708.00
2023-05-25T06:48:02.702Z,6600.00
2023-05-25T06:49:02.691Z,5748.00
2023-05-25T06:50:02.703Z,7044.00
2023-05-25T06:51:02.654Z,5880.00
2023-05-25T06:52:02.650Z,7496.00
2023-05-25T06:53:02.638Z,7472.00
2023-05-25T06:54:02.604Z,7392.00
2023-05-25T06:55:02.599Z,6560.00
2023-05-25T06:56:02.625Z,6580.00
2023-05-25T06:57:02.561Z,6496.00
2023-05-25T06:58:02.550Z,6512.00
2023-05-25T06:59:02.534Z,6528.00
2023-05-25T07:00:02.526Z,6708.00
2023-05-25T07:01:02.595Z,7344.00
2023-05-25T07:02:02.534Z,8500.00
2023-05-25T07:03:02.493Z,8660.00
2023-05-25T07:04:02.468Z,7828.00
2023-05-25T07:05:02.527Z,5704.00
2023-05-25T07:06:05.477Z,4556.00
2023-05-25T07:07:05.434Z,4008.00
2023-05-25T07:08:02.412Z,3788.00
2023-05-25T07:09:02.396Z,3700.00
2023-05-25T07:10:02.392Z,3588.00
2023-05-25T07:11:02.383Z,3456.00
2023-05-25T07:12:02.387Z,3352.00
2023-05-25T07:13:02.375Z,3264.00
2023-05-25T07:14:02.326Z,3164.00
2023-05-25T07:15:02.334Z,2976.00
2023-05-25T07:16:02.414Z,2848.00
2023-05-25T07:17:02.324Z,2760.00
2023-05-25T07:18:02.351Z,2740.00
2023-05-25T07:19:02.285Z,2788.00
2023-05-25T07:20:02.265Z,2908.00
2023-05-25T07:21:02.246Z,3056.00
2023-05-25T07:22:02.256Z,3252.00
2023-05-25T07:23:02.213Z,3528.00
2023-05-25T07:24:02.212Z,3924.00
2023-05-25T07:25:02.182Z,4444.00
2023-05-25T07:26:06.069Z,5024.00
2023-05-25T07:27:05.215Z,5560.00
2023-05-25T07:28:02.151Z,5956.00
2023-05-25T07:29:02.148Z,6176.00
2023-05-25T07:30:02.119Z,6088.00
2023-05-25T07:31:02.131Z,5964.00
2023-05-25T07:32:02.090Z,5956.00
2023-05-25T07:33:02.217Z,5948.00
2023-05-25T07:34:02.091Z,5880.00
2023-05-25T07:35:02.049Z,6168.00
2023-05-25T07:36:02.052Z,6580.00
2023-05-25T07:37:02.067Z,6644.00
2023-05-25T07:38:02.047Z,6376.00
2023-05-25T07:39:01.992Z,6136.00
2023-05-25T07:40:01.986Z,5952.00
2023-05-25T07:41:01.966Z,5764.00
2023-05-25T07:42:02.008Z,5504.00
2023-05-25T07:43:02.037Z,5184.00
2023-05-25T07:44:01.973Z,4792.00
2023-05-25T07:45:01.918Z,4508.00
2023-05-25T07:46:04.904Z,4224.00
2023-05-25T07:47:04.936Z,3980.00
2023-05-25T07:48:01.877Z,3876.00
2023-05-25T07:49:01.884Z,3876.00
2023-05-25T07:50:01.854Z,3912.00
2023-05-25T07:51:01.828Z,3852.00
2023-05-25T07:52:01.824Z,3776.00
2023-05-25T07:53:01.839Z,3716.00
2023-05-25T07:54:01.791Z,3668.00
2023-05-25T07:55:01.794Z,3700.00
2023-05-25T07:56:01.757Z,3896.00
2023-05-25T07:57:01.745Z,4212.00
2023-05-25T07:58:01.737Z,4560.00
2023-05-25T07:59:01.746Z,4808.00
2023-05-25T08:00:01.740Z,4860.00
2023-05-25T08:01:01.691Z,4924.00
2023-05-25T08:02:01.709Z,5120.00
2023-05-25T08:03:01.942Z,5372.00
2023-05-25T08:04:01.722Z,5760.00
2023-05-25T08:05:01.683Z,5712.00
2023-05-25T08:06:04.616Z,6104.00
2023-05-25T08:07:04.765Z,6080.00
2023-05-25T08:08:01.596Z,6236.00
2023-05-25T08:09:01.593Z,6520.00
2023-05-25T08:10:01.576Z,6780.00
2023-05-25T08:11:01.591Z,6860.00
2023-05-25T08:12:24.231Z,6744.00
2023-05-25T08:13:02.531Z,6704.00
2023-05-25T08:14:01.536Z,7232.00
2023-05-25T08:15:01.546Z,6936.00
2023-05-25T08:16:01.533Z,6828.00
2023-05-25T08:17:01.557Z,6928.00
2023-05-25T08:18:01.581Z,7020.00
2023-05-25T08:19:01.511Z,7208.00
2023-05-25T08:20:01.456Z,7160.00
2023-05-25T08:21:01.506Z,8232.00
2023-05-25T08:22:01.411Z,8088.00
2023-05-25T08:23:01.386Z,6712.00
2023-05-25T08:24:01.371Z,7728.00
2023-05-25T08:25:01.408Z,7128.00
2023-05-25T08:26:15.489Z,6308.00
2023-05-25T08:27:05.334Z,5964.00
2023-05-25T08:28:01.326Z,6816.00
2023-05-25T08:29:01.312Z,6632.00
2023-05-25T08:30:01.277Z,6560.00
2023-05-25T08:31:01.358Z,6540.00
2023-05-25T08:32:01.250Z,6480.00
2023-05-25T08:33:01.317Z,6428.00
2023-05-25T08:34:01.257Z,6520.00
2023-05-25T08:35:01.226Z,6300.00
2023-05-25T08:36:01.219Z,6744.00
2023-05-25T08:37:01.244Z,6636.00
2023-05-25T08:38:01.176Z,6608.00
2023-05-25T08:39:01.150Z,6140.00
2023-05-25T08:40:01.175Z,5888.00
2023-05-25T08:41:01.118Z,5628.00
2023-05-25T08:42:01.118Z,5348.00
2023-05-25T08:43:01.194Z,5188.00
2023-05-25T08:44:01.088Z,4956.00
2023-05-25T08:45:01.071Z,4944.00
2023-05-25T08:46:04.095Z,4976.00
2023-05-25T08:47:04.038Z,5324.00
2023-05-25T08:48:01.124Z,5860.00
2023-05-25T08:49:01.131Z,5108.00
2023-05-25T08:50:01.025Z,4360.00
2023-05-25T08:51:01.080Z,4128.00
2023-05-25T08:52:00.975Z,4084.00
2023-05-25T08:53:00.988Z,4660.00
2023-05-25T08:54:00.981Z,5756.00
2023-05-25T08:55:00.932Z,6012.00
2023-05-25T08:56:00.918Z,6212.00
2023-05-25T08:57:00.936Z,6384.00
2023-05-25T08:58:00.898Z,6320.00
2023-05-25T08:59:00.896Z,6068.00
2023-05-25T09:00:00.877Z,5880.00
2023-05-25T09:01:00.846Z,6024.00
2023-05-25T09:02:00.905Z,6000.00
2023-05-25T09:03:00.904Z,5708.00
2023-05-25T09:04:00.886Z,4680.00
2023-05-25T09:05:00.785Z,5656.00
2023-05-25T09:06:03.829Z,5800.00
2023-05-25T09:07:10.481Z,6068.00
2023-05-25T09:08:01.809Z,6460.00
2023-05-25T09:09:00.741Z,7032.00
2023-05-25T09:10:00.736Z,7508.00
2023-05-25T09:11:01.081Z,7596.00
2023-05-25T09:12:00.700Z,7500.00
2023-05-25T09:13:12.797Z,7512.00
2023-05-25T09:14:01.697Z,7836.00
2023-05-25T09:15:00.677Z,7316.00
2023-05-25T09:16:00.678Z,7556.00
2023-05-25T09:17:00.659Z,8376.00
2023-05-25T09:18:00.637Z,7868.00
2023-05-25T09:19:00.635Z,6796.00
2023-05-25T09:20:00.640Z,6704.00
2023-05-25T09:21:00.697Z,6724.00
2023-05-25T09:22:13.401Z,7000.00
2023-05-25T09:23:01.549Z,7184.00
2023-05-25T09:24:00.601Z,7384.00
2023-05-25T09:25:00.533Z,7512.00
2023-05-25T09:26:03.528Z,7472.00
2023-05-25T09:27:03.572Z,7448.00
2023-05-25T09:28:10.226Z,8076.00
2023-05-25T09:29:01.476Z,7176.00
2023-05-25T09:30:00.507Z,7156.00
2023-05-25T09:31:00.466Z,7120.00
2023-05-25T09:32:00.493Z,8260.00
2023-05-25T09:33:00.502Z,7160.00
2023-05-25T09:34:00.597Z,7432.00
2023-05-25T09:35:00.420Z,6924.00
2023-05-25T09:36:00.389Z,7920.00
2023-05-25T09:37:00.465Z,7332.00
2023-05-25T09:38:00.559Z,6584.00
2023-05-25T09:39:00.568Z,6304.00
2023-05-25T09:40:00.357Z,6112.00
2023-05-25T09:41:00.316Z,5944.00
2023-05-25T09:42:00.304Z,5796.00
2023-05-25T09:43:00.287Z,5936.00
2023-05-25T09:44:10.536Z,6684.00
2023-05-25T09:45:01.282Z,6720.00
2023-05-25T09:46:03.263Z,8500.00
2023-05-25T09:47:03.240Z,8552.00
2023-05-25T09:48:00.287Z,8484.00
2023-05-25T09:49:00.202Z,8320.00
2023-05-25T09:50:00.319Z,7692.00
2023-05-25T09:51:00.205Z,5756.00
2023-05-25T09:52:00.167Z,5124.00
2023-05-25T09:53:00.233Z,4556.00
2023-05-25T09:54:00.152Z,4196.00
2023-05-25T09:55:00.229Z,4264.00
2023-05-25T09:56:01.200Z,5728.00
2023-05-25T09:57:00.144Z,5788.00
2023-05-25T09:58:00.124Z,5880.00
2023-05-25T09:59:00.148Z,6036.00
2023-05-25T10:00:00.170Z,6072.00
2023-05-25T10:01:00.108Z,6128.00
2023-05-25T10:02:00.138Z,6348.00
2023-05-25T10:03:00.135Z,6560.00
2023-05-25T10:04:04.598Z,6512.00
2023-05-25T10:05:01.033Z,5988.00
2023-05-25T10:06:02.983Z,4308.00
2023-05-25T10:07:03.024Z,4380.00
2023-05-25T10:08:00.006Z,5100.00
2023-05-25T10:08:59.940Z,5152.00
2023-05-25T10:09:59.939Z,5044.00
2023-05-25T10:10:59.920Z,5608.00
2023-05-25T10:11:59.901Z,7368.00
2023-05-25T10:12:59.944Z,7752.00
2023-05-25T10:13:59.878Z,8188.00
2023-05-25T10:14:59.874Z,8220.00
2023-05-25T10:15:59.905Z,6584.00
2023-05-25T10:16:59.857Z,6564.00
2023-05-25T10:17:59.852Z,6080.00
2023-05-25T10:18:59.836Z,5636.00
2023-05-25T10:19:59.879Z,5160.00
2023-05-25T10:20:59.990Z,4660.00
2023-05-25T10:21:59.778Z,4368.00
2023-05-25T10:22:59.774Z,5316.00
2023-05-25T10:23:59.785Z,5280.00
2023-05-25T10:24:59.748Z,6984.00
2023-05-25T10:26:02.736Z,7156.00
2023-05-25T10:27:10.954Z,6052.00
2023-05-25T10:28:00.695Z,5864.00
2023-05-25T10:28:59.730Z,6292.00
2023-05-25T10:29:59.672Z,5444.00
2023-05-25T10:30:59.761Z,5352.00
2023-05-25T10:31:59.736Z,5216.00
2023-05-25T10:32:59.769Z,4980.00
2023-05-25T10:33:59.639Z,4812.00
2023-05-25T10:34:59.602Z,4972.00
2023-05-25T10:36:09.358Z,5336.00
2023-05-25T10:37:00.569Z,6076.00
2023-05-25T10:37:59.555Z,8416.00
2023-05-25T10:38:59.580Z,8928.00
2023-05-25T10:39:59.547Z,8196.00
2023-05-25T10:40:59.515Z,7236.00
2023-05-25T10:41:59.507Z,6920.00
2023-05-25T10:42:59.507Z,6900.00
2023-05-25T10:43:59.486Z,7184.00
2023-05-25T10:44:59.488Z,6780.00
2023-05-25T10:46:02.477Z,6632.00
2023-05-25T10:47:02.498Z,6624.00
2023-05-25T10:47:59.479Z,6604.00
2023-05-25T10:48:59.414Z,6552.00
2023-05-25T10:49:59.409Z,6468.00
2023-05-25T10:50:59.556Z,7460.00
2023-05-25T10:51:59.368Z,6964.00
2023-05-25T10:52:59.357Z,7828.00
2023-05-25T10:53:59.351Z,6744.00
2023-05-25T10:54:59.345Z,5968.00
2023-05-25T10:55:59.320Z,5328.00
2023-05-25T10:56:59.356Z,4920.00
2023-05-25T10:57:59.315Z,4960.00
2023-05-25T10:58:59.285Z,6248.00
2023-05-25T10:59:59.293Z,6352.00
2023-05-25T11:00:59.345Z,5172.00
2023-05-25T11:01:59.280Z,5064.00
2023-05-25T11:02:59.320Z,7352.00
2023-05-25T11:03:59.281Z,6096.00
2023-05-25T11:04:59.212Z,6352.00
2023-05-25T11:06:02.198Z,6232.00
2023-05-25T11:07:02.191Z,6140.00
2023-05-25T11:07:59.156Z,6040.00
2023-05-25T11:08:59.222Z,7804.00
2023-05-25T11:09:59.154Z,5716.00
2023-05-25T11:10:59.156Z,5652.00
2023-05-25T11:11:59.126Z,5544.00
2023-05-25T11:12:59.109Z,5292.00
2023-05-25T11:13:59.085Z,4948.00
2023-05-25T11:14:59.132Z,4752.00
2023-05-25T11:15:59.057Z,6336.00
2023-05-25T11:16:59.079Z,6736.00
2023-05-25T11:17:59.100Z,6584.00
2023-05-25T11:18:59.017Z,6444.00
2023-05-25T11:19:59.037Z,6524.00
2023-05-25T11:20:59.016Z,6604.00
2023-05-25T11:21:58.981Z,5828.00
2023-05-25T11:22:58.979Z,5744.00
2023-05-25T11:23:58.949Z,4756.00
2023-05-25T11:24:58.946Z,6068.00
2023-05-25T11:26:02.003Z,6072.00
2023-05-25T11:27:01.907Z,6212.00
2023-05-25T11:27:58.887Z,4488.00
2023-05-25T11:28:58.905Z,4152.00
2023-05-25T11:29:58.869Z,3888.00
2023-05-25T11:30:58.881Z,4104.00
2023-05-25T11:31:58.884Z,4168.00
2023-05-25T11:32:58.948Z,4032.00
2023-05-25T11:33:58.804Z,5756.00
2023-05-25T11:34:58.867Z,5388.00
2023-05-25T11:35:58.802Z,6228.00
2023-05-25T11:36:58.755Z,6644.00
2023-05-25T11:37:58.775Z,6616.00
2023-05-25T11:39:58.724Z,6540.00
2023-05-25T11:40:58.697Z,5996.00
2023-05-25T11:41:58.693Z,5308.00
2023-05-25T11:42:58.748Z,5100.00
2023-05-25T11:43:58.681Z,6024.00
2023-05-25T11:44:58.649Z,4668.00
2023-05-25T11:46:01.652Z,4644.00
2023-05-25T11:47:01.915Z,3792.00
2023-05-25T11:47:58.685Z,3928.00
2023-05-25T11:48:58.617Z,5096.00
2023-05-25T11:49:58.572Z,4844.00
2023-05-25T11:50:58.560Z,4656.00
2023-05-25T11:51:58.559Z,4624.00
2023-05-25T11:52:58.555Z,4604.00
2023-05-25T11:53:58.548Z,4672.00
2023-05-25T11:54:58.545Z,4760.00
2023-05-25T11:56:07.570Z,3788.00
2023-05-25T11:56:59.686Z,3052.00
2023-05-25T11:57:58.468Z,3376.00
2023-05-25T11:58:58.450Z,4820.00
2023-05-25T11:59:58.449Z,4732.00
2023-05-25T12:00:58.474Z,4828.00
2023-05-25T12:01:58.399Z,4308.00
2023-05-25T12:02:58.498Z,3952.00
2023-05-25T12:03:58.644Z,4780.00
2023-05-25T12:04:58.496Z,4780.00
2023-05-25T12:06:01.425Z,4828.00
2023-05-25T12:07:01.351Z,4984.00
2023-05-25T12:07:58.359Z,5228.00
2023-05-25T12:08:58.303Z,5412.00
2023-05-25T12:09:58.289Z,4400.00
2023-05-25T12:10:58.291Z,4908.00
2023-05-25T12:11:58.265Z,4732.00
2023-05-25T12:12:58.320Z,4632.00
2023-05-25T12:13:58.269Z,4592.00
2023-05-25T12:14:59.087Z,4520.00
2023-05-25T12:15:58.211Z,4532.00
2023-05-25T12:16:58.214Z,4484.00
2023-05-25T12:17:58.197Z,4516.00
2023-05-25T12:18:58.166Z,4584.00
2023-05-25T12:19:58.219Z,4108.00
2023-05-25T12:20:58.230Z,4540.00
2023-05-25T12:21:58.111Z,4508.00
2023-05-25T12:22:58.118Z,4568.00
2023-05-25T12:23:58.097Z,4624.00